Time;durP1;ratioP1;P1;durP2;ratioP2;P2;SDS_P1;SDS_P2;PMS_P1;PMS_P2;Temp;Humidity;BMP_temperature;BMP_pressure;BME280_temperature;BME280_humidity;BME280_pressure;Samples;Min_cycle;Max_cycle;Signal;HPM_P1;HPM_P2
2023/04/28 00:03:55;;;;;;;2.97;1.60;;;11.80;99.90;;;;;;20747045;28;20057;-73
2023/04/28 00:13:56;;;;;;;4.20;1.60;;;11.80;99.90;;;;;;20746368;28;20176;-73
2023/04/28 00:23:57;;;;;;;4.87;1.50;;;11.50;99.90;;;;;;20745672;28;20057;-74
2023/04/28 00:33:57;;;;;;;3.00;1.60;;;11.70;99.90;;;;;;20745127;28;20025;-73
2023/04/28 00:43:58;;;;;;;3.20;1.67;;;11.80;99.90;;;;;;20743613;28;20034;-73
2023/04/28 00:53:59;;;;;;;1.93;1.40;;;11.50;99.90;;;;;;20744387;28;20029;-74
2023/04/28 01:04:00;;;;;;;5.97;1.63;;;11.60;99.90;;;;;;20725271;28;20030;-72
2023/04/28 01:14:02;;;;;;;2.10;1.50;;;11.40;99.90;;;;;;20724275;28;20038;-73
2023/04/28 01:24:07;;;;;;;4.90;2.00;;;11.40;99.90;;;;;;20720634;28;20034;-72
2023/04/28 01:34:07;;;;;;;7.60;1.70;;;11.30;99.90;;;;;;20723849;28;20034;-73
2023/04/28 01:44:11;;;;;;;4.28;1.65;;;11.00;99.90;;;;;;20722732;28;20088;-72
2023/04/28 01:54:12;;;;;;;3.58;1.80;;;11.10;99.90;;;;;;20741521;28;20148;-72
2023/04/28 02:04:13;;;;;;;6.03;2.20;;;10.90;99.90;;;;;;20738523;28;20083;-72
2023/04/28 02:14:15;;;;;;;4.17;2.70;;;10.60;99.90;;;;;;20737963;28;20112;-72
2023/04/28 02:24:16;;;;;;;4.45;2.50;;;10.70;99.90;;;;;;20755499;28;20117;-72
2023/04/28 02:34:16;;;;;;;8.07;2.60;;;10.80;99.90;;;;;;20736768;28;20069;-74
2023/04/28 02:44:18;;;;;;;;;;;10.70;99.90;;;;;;20736450;28;20088;-73
2023/04/28 02:54:26;;;;;;;4.72;2.90;;;10.50;99.90;;;;;;20768063;28;19910;-72
2023/04/28 03:04:27;;;;;;;6.38;3.53;;;10.50;99.90;;;;;;20774384;23;20451;-73
2023/04/28 03:14:28;;;;;;;5.50;3.80;;;10.50;99.90;;;;;;20734763;28;20038;-73
2023/04/28 03:24:29;;;;;;;7.53;4.10;;;10.30;99.90;;;;;;20749018;28;20066;-73
2023/04/28 03:34:30;;;;;;;6.30;3.97;;;10.20;99.90;;;;;;20750482;28;20076;-73
2023/04/28 03:44:31;;;;;;;6.95;3.97;;;10.20;99.90;;;;;;20748347;28;20033;-73
2023/04/28 03:54:32;;;;;;;7.13;4.78;;;10.20;99.90;;;;;;20747588;28;20038;-72
2023/04/28 04:04:34;;;;;;;10.68;5.63;;;10.20;99.90;;;;;;20747440;28;20060;-72
2023/04/28 04:14:35;;;;;;;12.17;5.90;;;10.10;99.90;;;;;;20727867;28;20128;-72
2023/04/28 04:24:36;;;;;;;8.77;4.93;;;10.00;99.90;;;;;;20742002;28;20401;-73
2023/04/28 04:34:37;;;;;;;11.18;5.63;;;10.20;99.90;;;;;;20745706;28;20030;-74
2023/04/28 04:44:38;;;;;;;14.00;6.17;;;10.20;99.90;;;;;;20743901;28;20451;-73
2023/04/28 04:54:44;;;;;;;12.20;6.25;;;10.10;99.90;;;;;;20741660;28;20314;-73
2023/04/28 05:04:45;;;;;;;11.05;6.50;;;10.20;99.90;;;;;;20722823;28;20033;-72
2023/04/28 05:14:49;;;;;;;10.60;6.32;;;10.20;99.90;;;;;;20721996;28;20041;-73
2023/04/28 05:24:51;;;;;;;12.38;6.80;;;10.30;99.90;;;;;;20724807;28;20038;-72
2023/04/28 05:34:52;;;;;;;14.27;7.13;;;10.30;99.90;;;;;;20750869;28;20029;-72
2023/04/28 05:44:53;;;;;;;8.33;5.93;;;10.10;99.90;;;;;;20757109;28;20655;-73
2023/04/28 05:54:53;;;;;;;9.87;5.83;;;10.20;99.90;;;;;;20737849;28;20034;-73
2023/04/28 06:04:55;;;;;;;12.73;7.10;;;10.30;99.90;;;;;;20750607;28;20030;-72
2023/04/28 06:14:56;;;;;;;;;;;10.40;99.90;;;;;;20746218;28;20273;-72
2023/04/28 06:25:00;;;;;;;10.15;5.70;;;10.40;99.90;;;;;;20746376;28;19917;-72
2023/04/28 06:35:09;;;;;;;10.82;7.07;;;10.50;99.90;;;;;;20749210;28;20113;-72
2023/04/28 06:45:10;;;;;;;9.87;6.13;;;10.50;99.90;;;;;;20769010;28;20068;-72
2023/04/28 06:55:16;;;;;;;10.48;6.75;;;10.80;99.90;;;;;;20753112;28;20316;-73
2023/04/28 07:05:16;;;;;;;8.05;5.00;;;11.20;99.90;;;;;;20758848;28;20026;-72
2023/04/28 07:15:17;;;;;;;8.30;5.57;;;11.10;99.90;;;;;;20751888;28;20057;-73
2023/04/28 07:25:18;;;;;;;9.33;5.70;;;11.40;99.90;;;;;;20750854;28;20037;-72
2023/04/28 07:35:19;;;;;;;11.43;5.67;;;11.50;99.90;;;;;;20750008;28;20038;-72
2023/04/28 07:45:20;;;;;;;11.23;7.00;;;11.40;99.90;;;;;;20749198;28;20034;-72
2023/04/28 07:55:20;;;;;;;13.17;7.07;;;11.50;99.90;;;;;;20747935;28;20167;-72
2023/04/28 08:05:21;;;;;;;7.80;5.53;;;11.50;99.90;;;;;;20747502;28;20125;-72
2023/04/28 08:15:22;;;;;;;7.53;4.93;;;11.40;99.90;;;;;;20746984;28;20091;-72
2023/04/28 08:25:23;;;;;;;11.67;7.17;;;11.50;99.90;;;;;;20746172;28;20124;-72
2023/04/28 08:35:24;;;;;;;10.77;6.87;;;11.50;99.90;;;;;;20745503;28;20487;-73
2023/04/28 08:45:26;;;;;;;9.20;6.53;;;11.60;99.90;;;;;;20744949;28;20037;-73
2023/04/28 08:55:27;;;;;;;12.25;7.18;;;11.80;99.90;;;;;;20744454;28;20555;-72
2023/04/28 09:05:28;;;;;;;7.33;5.10;;;12.10;99.90;;;;;;20743521;28;20310;-72
2023/04/28 09:15:35;;;;;;;9.50;5.93;;;12.40;99.90;;;;;;20742009;28;20354;-72
2023/04/28 09:25:35;;;;;;;14.25;8.63;;;12.50;99.90;;;;;;20742649;28;20038;-72
2023/04/28 09:35:41;;;;;;;9.63;6.90;;;12.70;99.90;;;;;;20742451;28;20389;-72
2023/04/28 09:45:41;;;;;;;17.77;11.15;;;12.90;99.90;;;;;;20742212;28;20519;-72
2023/04/28 09:55:45;;;;;;;22.57;11.47;;;12.90;99.90;;;;;;20724446;28;20042;-72
2023/04/28 10:05:47;;;;;;;16.58;9.23;;;13.00;99.90;;;;;;20741306;28;20496;-73
2023/04/28 10:15:50;;;;;;;13.20;7.13;;;13.10;99.90;;;;;;20742443;28;20404;-73
2023/04/28 10:25:56;;;;;;;14.00;6.80;;;13.20;99.90;;;;;;20738327;28;20029;-73
2023/04/28 10:35:57;;;;;;;8.80;6.35;;;13.50;99.90;;;;;;20754809;28;20177;-74
2023/04/28 10:46:00;;;;;;;14.03;6.83;;;13.80;99.90;;;;;;20754320;28;20034;-73
2023/04/28 10:56:05;;;;;;;13.15;8.13;;;13.90;99.90;;;;;;20736181;28;20461;-74
2023/04/28 11:06:27;;;;;;;12.35;6.90;;;13.80;99.90;;;;;;20752456;28;20395;-73
2023/04/28 11:16:27;;;;;;;14.98;6.30;;;14.20;99.90;;;;;;20752128;28;20030;-72
2023/04/28 11:26:28;;;;;;;7.20;5.30;;;14.70;99.90;;;;;;20750814;28;20029;-72
2023/04/28 11:36:37;;;;;;;6.57;4.50;;;14.80;99.90;;;;;;20749354;28;20102;-73
2023/04/28 11:46:54;;;;;;;6.68;4.90;;;15.00;99.90;;;;;;20758318;28;20026;-72
2023/04/28 11:56:57;;;;;;;10.85;5.88;;;14.90;99.90;;;;;;20775071;28;20511;-73
2023/04/28 12:07:03;;;;;;;8.13;5.07;;;15.30;99.90;;;;;;20753401;28;20081;-74
2023/04/28 12:17:04;;;;;;;11.68;4.45;;;15.60;99.90;;;;;;20745371;28;20511;-73
2023/04/28 12:27:20;;;;;;;10.63;4.50;;;15.70;99.90;;;;;;20756829;28;20033;-73
2023/04/28 12:37:21;;;;;;;6.85;4.25;;;15.90;99.90;;;;;;20786531;28;20421;-73
2023/04/28 12:47:22;;;;;;;6.67;3.87;;;16.20;99.90;;;;;;20746886;28;20073;-73
2023/04/28 12:57:23;;;;;;;5.83;3.77;;;16.40;99.90;;;;;;20745853;28;20030;-73
2023/04/28 13:07:24;;;;;;;7.37;4.20;;;16.50;99.90;;;;;;20742210;28;20064;-73
2023/04/28 13:17:26;;;;;;;10.43;4.40;;;17.00;99.90;;;;;;20743419;28;20436;-73
2023/04/28 13:27:29;;;;;;;8.85;3.53;;;17.10;99.90;;;;;;20742807;28;20034;-73
2023/04/28 13:37:30;;;;;;;6.70;3.42;;;17.40;99.90;;;;;;20742810;28;20034;-73
2023/04/28 13:47:31;;;;;;;;;;;17.50;99.90;;;;;;20742785;28;20034;-73
2023/04/28 13:57:32;;;;;;;7.65;3.55;;;16.90;99.90;;;;;;20753420;28;19992;-73
2023/04/28 14:07:33;;;;;;;4.13;3.03;;;16.90;99.90;;;;;;20756742;28;20038;-73
2023/04/28 14:17:34;;;;;;;5.77;3.30;;;16.90;99.90;;;;;;20755874;28;20068;-73
2023/04/28 14:27:35;;;;;;;4.87;3.23;;;17.00;99.90;;;;;;20753266;28;20042;-73
2023/04/28 14:37:35;;;;;;;6.57;3.27;;;17.10;99.90;;;;;;20754914;28;20773;-73
2023/04/28 14:47:38;;;;;;;5.30;3.07;;;16.90;99.90;;;;;;20754124;28;20034;-73
2023/04/28 14:57:38;;;;;;;6.78;2.78;;;16.80;99.90;;;;;;20752904;28;20118;-73
2023/04/28 15:07:39;;;;;;;5.13;3.20;;;17.10;99.90;;;;;;20752803;28;20479;-73
2023/04/28 15:17:40;;;;;;;5.73;3.53;;;17.00;99.90;;;;;;20751574;28;20038;-74
2023/04/28 15:27:41;;;;;;;8.33;3.60;;;16.70;99.90;;;;;;20750741;28;20487;-73
2023/04/28 15:37:46;;;;;;;6.63;3.47;;;16.80;99.90;;;;;;20732367;28;20100;-73
2023/04/28 15:47:49;;;;;;;4.60;3.30;;;16.70;99.90;;;;;;20748586;28;20110;-73
2023/04/28 15:57:51;;;;;;;4.10;2.90;;;16.30;99.90;;;;;;20746788;28;20489;-73
2023/04/28 16:07:53;;;;;;;7.55;3.45;;;16.20;99.90;;;;;;20746707;28;20030;-73
2023/04/28 16:17:55;;;;;;;5.22;3.13;;;16.00;99.90;;;;;;20744991;28;20104;-73
2023/04/28 16:27:56;;;;;;;6.70;4.57;;;15.90;99.90;;;;;;20745319;28;20049;-73
2023/04/28 16:37:57;;;;;;;18.67;7.93;;;16.00;99.90;;;;;;20743733;28;20172;-74
2023/04/28 16:47:57;;;;;;;11.33;7.80;;;15.70;99.90;;;;;;20743338;28;20029;-73
2023/04/28 16:57:58;;;;;;;13.30;6.73;;;15.60;99.90;;;;;;20738688;28;20030;-74
2023/04/28 17:07:59;;;;;;;8.80;3.60;;;15.40;99.90;;;;;;20739752;28;20080;-74
2023/04/28 17:18:00;;;;;;;5.10;2.40;;;15.30;99.90;;;;;;20740407;28;20037;-75
2023/04/28 17:28:01;;;;;;;4.35;2.35;;;15.30;99.90;;;;;;20740317;28;20034;-74
2023/04/28 17:38:01;;;;;;;3.83;2.17;;;15.10;99.90;;;;;;20741237;28;20026;-74
2023/04/28 17:48:03;;;;;;;12.37;8.97;;;15.00;99.90;;;;;;20731341;28;20377;-74
2023/04/28 17:58:03;;;;;;;7.60;3.20;;;14.90;99.90;;;;;;20740733;28;20018;-74
2023/04/28 18:08:04;;;;;;;8.30;3.10;;;14.90;99.90;;;;;;20739941;28;20284;-74
2023/04/28 18:18:05;;;;;;;4.57;2.63;;;14.90;99.90;;;;;;20739525;28;20022;-74
2023/04/28 18:28:07;;;;;;;7.00;4.57;;;14.90;99.90;;;;;;20738988;28;20026;-76
2023/04/28 18:38:07;;;;;;;6.10;3.50;;;14.80;99.90;;;;;;20741896;28;20071;-73
2023/04/28 18:48:08;;;;;;;5.90;3.20;;;14.90;99.90;;;;;;20754312;28;20058;-71
2023/04/28 18:58:09;;;;;;;4.93;1.93;;;14.70;99.90;;;;;;20753599;28;20463;-72
2023/04/28 19:08:11;;;;;;;5.90;2.47;;;14.60;99.90;;;;;;20753034;28;20030;-72
2023/04/28 19:18:11;;;;;;;;;;;14.60;99.90;;;;;;20699164;28;20041;-74
2023/04/28 19:28:12;;;;;;;3.97;2.92;;;14.50;99.90;;;;;;20750870;28;20366;-73
2023/04/28 19:38:15;;;;;;;5.13;2.93;;;14.30;99.90;;;;;;20750340;28;20156;-73
2023/04/28 19:48:17;;;;;;;4.97;3.10;;;14.30;99.90;;;;;;20748003;28;20030;-73
2023/04/28 19:58:18;;;;;;;9.88;5.78;;;14.10;99.90;;;;;;20749317;28;20076;-72
2023/04/28 20:08:22;;;;;;;90.83;9.43;;;13.90;99.90;;;;;;20730437;28;20026;-72
2023/04/28 20:18:23;;;;;;;13.38;6.63;;;13.80;99.90;;;;;;20747365;28;20038;-72
2023/04/28 20:28:24;;;;;;;12.27;6.57;;;13.80;99.90;;;;;;20746618;28;20511;-72
2023/04/28 20:38:25;;;;;;;13.77;7.67;;;13.50;99.90;;;;;;20745501;28;20030;-73
2023/04/28 20:48:27;;;;;;;11.68;6.82;;;13.60;99.90;;;;;;20745317;28;20476;-73
2023/04/28 20:58:30;;;;;;;57.17;9.30;;;13.60;99.90;;;;;;20726938;28;20595;-73
2023/04/28 21:08:31;;;;;;;12.88;7.75;;;13.40;99.90;;;;;;20744707;28;20047;-73
2023/04/28 21:18:31;;;;;;;11.47;6.17;;;13.00;99.90;;;;;;20709297;28;20121;-74
2023/04/28 21:28:33;;;;;;;8.50;5.00;;;13.10;99.90;;;;;;20738797;28;20022;-73
2023/04/28 21:38:38;;;;;;;10.57;5.85;;;13.00;99.90;;;;;;20741887;28;20045;-74
2023/04/28 21:48:39;;;;;;;11.43;6.28;;;13.10;99.90;;;;;;20741863;28;20037;-73
2023/04/28 21:58:39;;;;;;;133.13;8.93;;;13.00;99.90;;;;;;20730036;28;20085;-72
2023/04/28 22:08:40;;;;;;;36.10;5.90;;;13.00;99.90;;;;;;20741810;28;20037;-73
2023/04/28 22:18:41;;;;;;;45.37;6.90;;;13.00;99.90;;;;;;20752746;28;20041;-73
2023/04/28 22:28:42;;;;;;;7.77;4.77;;;13.00;99.90;;;;;;20755494;28;20041;-73
2023/04/28 22:38:42;;;;;;;7.77;3.83;;;13.10;99.90;;;;;;20755098;28;20021;-73
2023/04/28 22:48:43;;;;;;;5.43;3.50;;;13.30;99.90;;;;;;20753918;28;20062;-73
2023/04/28 22:58:44;;;;;;;114.70;7.82;;;13.30;99.90;;;;;;20753289;28;20029;-73
2023/04/28 23:08:45;;;;;;;203.90;11.83;;;13.30;99.90;;;;;;20752310;28;20069;-73
2023/04/28 23:18:46;;;;;;;11.90;6.03;;;13.20;99.90;;;;;;20753353;28;20077;-74
2023/04/28 23:28:47;;;;;;;11.00;6.73;;;13.20;99.90;;;;;;20748304;28;20511;-73
2023/04/28 23:38:48;;;;;;;408.52;22.85;;;13.20;99.90;;;;;;20749371;28;20030;-73
2023/04/28 23:48:50;;;;;;;100.57;9.20;;;13.20;99.90;;;;;;20749669;28;20497;-73
2023/04/28 23:58:51;;;;;;;6.23;4.13;;;13.00;99.90;;;;;;20748612;28;20057;-73
